createdAt,value
2022-08-04T00:01:42.820Z,25.00
2022-08-04T00:04:30.941Z,25.00
2022-08-04T00:07:12.498Z,25.00
2022-08-04T00:09:49.862Z,25.00
2022-08-04T00:12:19.454Z,25.00
2022-08-04T00:14:50.976Z,25.00
2022-08-04T00:17:21.243Z,25.00
2022-08-04T00:19:51.603Z,25.00
2022-08-04T00:22:22.123Z,25.00
2022-08-04T00:24:48.885Z,25.00
2022-08-04T00:27:16.609Z,25.00
2022-08-04T00:29:43.894Z,24.90
2022-08-04T00:32:10.612Z,25.00
2022-08-04T00:34:39.045Z,25.00
2022-08-04T00:37:06.779Z,25.00
2022-08-04T00:39:34.643Z,25.00
2022-08-04T00:42:29.958Z,25.00
2022-08-04T00:45:05.128Z,25.00
2022-08-04T00:47:43.896Z,25.00
2022-08-04T00:50:12.425Z,25.00
2022-08-04T00:52:59.693Z,25.00
2022-08-04T00:55:47.490Z,25.00
2022-08-04T00:58:54.584Z,25.00
2022-08-04T01:02:00.365Z,25.00
2022-08-04T01:04:57.263Z,25.00
2022-08-04T01:07:54.917Z,25.00
2022-08-04T01:10:36.022Z,25.00
2022-08-04T01:13:10.078Z,25.00
2022-08-04T01:16:07.394Z,25.00
2022-08-04T01:18:46.499Z,25.00
2022-08-04T01:21:31.393Z,25.00
2022-08-04T01:24:35.418Z,25.00
2022-08-04T01:27:05.941Z,25.00
2022-08-04T01:29:48.845Z,25.00
2022-08-04T01:32:31.570Z,25.00
2022-08-04T01:35:03.510Z,25.00
2022-08-04T01:37:39.063Z,25.00
2022-08-04T01:40:07.374Z,25.00
2022-08-04T01:42:36.227Z,25.00
2022-08-04T01:45:06.489Z,25.00
2022-08-04T01:47:36.053Z,25.00
2022-08-04T01:50:11.541Z,25.00
2022-08-04T01:52:47.611Z,25.00
2022-08-04T01:55:18.084Z,25.00
2022-08-04T01:57:50.401Z,25.00
2022-08-04T02:00:20.177Z,25.00
2022-08-04T02:02:47.391Z,25.00
2022-08-04T02:05:19.444Z,25.00
2022-08-04T02:08:29.671Z,25.00
2022-08-04T02:11:04.878Z,25.00
2022-08-04T02:13:57.526Z,25.00
2022-08-04T02:16:28.990Z,25.00
2022-08-04T02:19:20.647Z,25.00
2022-08-04T02:21:55.877Z,25.00
2022-08-04T02:24:26.348Z,25.00
2022-08-04T02:26:56.022Z,25.00
2022-08-04T02:29:43.787Z,25.00
2022-08-04T02:32:29.102Z,25.00
2022-08-04T02:35:06.594Z,25.00
2022-08-04T02:37:34.161Z,25.00
2022-08-04T02:40:04.454Z,25.00
2022-08-04T02:42:33.484Z,24.60
2022-08-04T02:45:01.274Z,25.00
2022-08-04T02:48:28.940Z,25.00
2022-08-04T02:50:28.454Z,25.00
2022-08-04T02:52:58.889Z,25.00
2022-08-04T02:55:27.235Z,25.00
2022-08-04T02:57:56.302Z,25.00
2022-08-04T03:00:23.807Z,25.00
2022-08-04T03:03:10.648Z,25.00
2022-08-04T03:06:01.381Z,25.00
2022-08-04T03:08:46.925Z,25.00
2022-08-04T03:11:21.562Z,25.00
2022-08-04T03:13:53.319Z,25.00
2022-08-04T03:16:19.923Z,25.00
2022-08-04T03:19:07.574Z,25.00
2022-08-04T03:22:00.387Z,25.00
2022-08-04T03:24:38.658Z,25.00
2022-08-04T03:27:32.654Z,25.00
2022-08-04T03:30:05.096Z,25.10
2022-08-04T03:33:06.005Z,25.00
2022-08-04T03:35:53.283Z,25.00
2022-08-04T03:39:02.798Z,25.10
2022-08-04T03:41:57.434Z,25.10
2022-08-04T03:44:55.755Z,25.10
2022-08-04T03:47:44.585Z,25.10
2022-08-04T03:50:32.690Z,25.00
2022-08-04T03:53:11.320Z,25.00
2022-08-04T03:56:23.241Z,25.00
2022-08-04T03:59:04.685Z,25.00
2022-08-04T04:02:01.621Z,25.00
2022-08-04T04:04:59.686Z,25.00
2022-08-04T04:07:54.080Z,25.00
2022-08-04T04:10:51.369Z,25.00
2022-08-04T04:13:39.016Z,25.00
2022-08-04T04:16:39.068Z,25.00
2022-08-04T04:19:30.663Z,25.00
2022-08-04T04:22:17.634Z,25.00
2022-08-04T04:25:08.949Z,25.00
2022-08-04T04:28:44.775Z,25.00
2022-08-04T04:31:09.289Z,25.00
2022-08-04T04:33:38.813Z,25.00
2022-08-04T04:36:18.733Z,25.00
2022-08-04T04:39:20.417Z,25.00
2022-08-04T04:42:22.271Z,25.00
2022-08-04T04:45:14.906Z,25.00
2022-08-04T04:48:08.953Z,25.00
2022-08-04T04:50:53.205Z,25.00
2022-08-04T04:53:43.260Z,25.00
2022-08-04T04:56:23.056Z,25.00
2022-08-04T04:58:52.662Z,24.90
2022-08-04T05:01:36.147Z,24.90
2022-08-04T05:04:44.011Z,24.70
2022-08-04T05:07:46.513Z,24.60
2022-08-04T05:10:39.845Z,24.50
2022-08-04T05:14:36.506Z,24.40
2022-08-04T05:16:32.463Z,24.40
2022-08-04T05:19:20.179Z,24.40
2022-08-04T05:22:04.066Z,24.30
2022-08-04T05:24:37.284Z,24.30
2022-08-04T05:27:16.964Z,24.30
2022-08-04T05:29:52.932Z,24.40
2022-08-04T05:32:26.518Z,24.40
2022-08-04T05:35:02.736Z,24.40
2022-08-04T05:37:33.140Z,24.50
2022-08-04T05:40:04.759Z,24.60
2022-08-04T05:42:40.156Z,24.60
2022-08-04T05:45:08.805Z,24.60
2022-08-04T05:47:36.683Z,24.60
2022-08-04T05:50:05.366Z,24.50
2022-08-04T05:52:33.835Z,24.60
2022-08-04T05:55:02.237Z,24.50
2022-08-04T05:57:30.165Z,24.60
2022-08-04T06:00:00.184Z,24.50
2022-08-04T06:02:28.365Z,24.60
2022-08-04T06:04:56.308Z,24.60
2022-08-04T06:07:23.319Z,24.60
2022-08-04T06:09:50.025Z,24.60
2022-08-04T06:12:30.930Z,24.70
2022-08-04T06:14:59.953Z,24.70
2022-08-04T06:19:56.790Z,24.70
2022-08-04T06:20:22.984Z,24.70
2022-08-04T06:22:55.415Z,24.70
2022-08-04T06:25:26.310Z,24.70
2022-08-04T06:27:55.870Z,24.70
2022-08-04T06:30:26.828Z,24.70
2022-08-04T06:33:04.086Z,24.70
2022-08-04T06:35:32.958Z,24.70
2022-08-04T06:38:01.774Z,24.70
2022-08-04T06:40:33.462Z,24.70
2022-08-04T06:43:06.212Z,24.70
2022-08-04T06:45:35.744Z,24.70
2022-08-04T06:48:04.762Z,24.70
2022-08-04T06:51:26.910Z,24.70
2022-08-04T06:53:21.294Z,24.70
2022-08-04T06:55:49.138Z,24.80
2022-08-04T06:58:17.359Z,24.80
2022-08-04T07:00:46.869Z,24.80
2022-08-04T07:03:14.492Z,24.90
2022-08-04T07:05:41.682Z,24.80
2022-08-04T07:08:11.368Z,24.80
2022-08-04T07:10:39.187Z,24.80
2022-08-04T07:13:07.469Z,24.90
2022-08-04T07:15:35.727Z,24.90
2022-08-04T07:18:04.580Z,24.90
2022-08-04T07:20:34.782Z,24.90
2022-08-04T07:23:06.910Z,24.90
2022-08-04T07:25:58.998Z,24.90
2022-08-04T07:28:26.744Z,24.90
2022-08-04T07:30:54.761Z,24.90
2022-08-04T07:33:22.652Z,24.80
2022-08-04T07:36:09.860Z,24.80
2022-08-04T07:38:46.452Z,24.90
2022-08-04T07:41:38.003Z,24.90
2022-08-04T07:44:05.649Z,24.90
2022-08-04T07:46:32.593Z,24.90
2022-08-04T07:49:02.485Z,24.90
2022-08-04T07:51:30.570Z,25.00
2022-08-04T07:54:00.183Z,25.00
2022-08-04T07:56:27.831Z,24.90
2022-08-04T07:58:55.063Z,25.00
2022-08-04T08:01:23.439Z,25.00
2022-08-04T08:03:52.649Z,25.00
2022-08-04T08:06:32.908Z,25.00
2022-08-04T08:09:12.203Z,25.00
2022-08-04T08:12:38.718Z,25.00
2022-08-04T08:14:33.300Z,25.00
2022-08-04T08:17:02.280Z,25.00
2022-08-04T08:19:30.771Z,25.00
2022-08-04T08:21:59.241Z,25.00
2022-08-04T08:24:34.677Z,25.00
2022-08-04T08:27:04.198Z,25.00
2022-08-04T08:29:33.907Z,25.00
2022-08-04T08:32:07.782Z,25.00
2022-08-04T08:34:35.918Z,25.10
2022-08-04T08:37:17.625Z,25.10
2022-08-04T08:39:59.568Z,25.10
2022-08-04T08:42:54.335Z,25.00
2022-08-04T08:45:24.043Z,25.10
2022-08-04T08:48:15.432Z,25.10
2022-08-04T08:50:45.203Z,25.10
2022-08-04T08:53:29.731Z,25.10
2022-08-04T08:56:13.106Z,25.10
2022-08-04T08:59:06.470Z,25.00
2022-08-04T09:02:12.052Z,25.10
2022-08-04T09:05:16.481Z,25.10
2022-08-04T09:08:08.269Z,25.20
2022-08-04T09:10:45.126Z,25.10
2022-08-04T09:13:27.645Z,25.10
2022-08-04T09:16:08.964Z,25.10
2022-08-04T09:18:57.276Z,25.20
2022-08-04T09:21:52.169Z,25.20
2022-08-04T09:24:37.350Z,25.10
2022-08-04T09:27:13.553Z,25.20
2022-08-04T09:29:47.742Z,25.20
2022-08-04T09:32:39.075Z,25.20
2022-08-04T09:35:43.434Z,25.20
2022-08-04T09:38:33.079Z,25.20
2022-08-04T09:41:48.053Z,25.20
2022-08-04T09:44:52.680Z,24.90
2022-08-04T09:47:42.712Z,25.10
2022-08-04T09:50:28.141Z,25.20
2022-08-04T09:53:31.187Z,25.20
2022-08-04T09:56:28.345Z,25.10
2022-08-04T09:59:49.846Z,25.10
2022-08-04T10:02:18.866Z,25.10
2022-08-04T10:04:47.247Z,25.20
2022-08-04T10:07:27.403Z,25.20
2022-08-04T10:09:57.072Z,25.20
2022-08-04T10:12:38.701Z,25.10
2022-08-04T10:15:24.532Z,25.20
2022-08-04T10:18:21.421Z,25.30
2022-08-04T10:21:07.878Z,25.20
2022-08-04T10:23:55.922Z,25.10
2022-08-04T10:26:56.877Z,25.20
2022-08-04T10:29:43.907Z,25.20
2022-08-04T10:32:31.681Z,25.30
2022-08-04T10:35:02.383Z,25.30
2022-08-04T10:37:59.051Z,25.30
2022-08-04T10:40:48.359Z,25.30
2022-08-04T10:43:39.835Z,25.30
2022-08-04T10:46:26.158Z,25.30
2022-08-04T10:49:07.716Z,25.30
2022-08-04T10:51:57.182Z,25.20
2022-08-04T10:54:48.164Z,25.30
2022-08-04T10:57:23.740Z,25.30
2022-08-04T11:00:00.684Z,25.30
2022-08-04T11:03:09.344Z,25.30
2022-08-04T11:05:44.278Z,25.30
2022-08-04T11:08:33.285Z,25.30
2022-08-04T11:11:30.007Z,25.30
2022-08-04T11:14:03.982Z,25.30
2022-08-04T11:16:37.759Z,25.30
2022-08-04T11:19:13.239Z,25.30
2022-08-04T11:21:44.723Z,25.30
2022-08-04T11:24:19.393Z,25.30
2022-08-04T11:26:57.673Z,25.30
2022-08-04T11:30:06.116Z,25.40
2022-08-04T11:32:52.103Z,25.40
2022-08-04T11:35:34.407Z,25.40
2022-08-04T11:38:37.078Z,25.40
2022-08-04T11:41:13.243Z,25.40
2022-08-04T11:44:01.661Z,25.30
2022-08-04T11:46:47.317Z,25.30
2022-08-04T11:49:21.240Z,25.30
2022-08-04T11:51:50.072Z,25.30
2022-08-04T11:54:18.916Z,25.30
2022-08-04T11:56:46.275Z,25.30
2022-08-04T11:59:13.033Z,25.30
2022-08-04T12:02:30.932Z,25.30
2022-08-04T12:05:00.459Z,25.30
2022-08-04T12:07:42.857Z,25.30
2022-08-04T12:10:41.593Z,25.30
2022-08-04T12:13:24.529Z,25.30
2022-08-04T12:16:27.857Z,25.30
2022-08-04T12:18:58.392Z,25.30
2022-08-04T12:21:31.362Z,25.40
2022-08-04T12:24:05.214Z,25.40
2022-08-04T12:26:36.817Z,25.40
2022-08-04T12:29:11.297Z,25.40
2022-08-04T12:31:55.168Z,25.40
2022-08-04T12:34:34.952Z,25.40
2022-08-04T12:37:10.697Z,25.40
2022-08-04T12:40:22.585Z,25.40
2022-08-04T12:43:04.303Z,25.40
2022-08-04T12:45:32.214Z,25.40
2022-08-04T12:48:00.703Z,25.40
2022-08-04T12:50:28.424Z,25.40
2022-08-04T12:53:03.514Z,25.40
2022-08-04T12:55:33.391Z,25.40
2022-08-04T12:58:02.750Z,25.40
2022-08-04T13:00:39.985Z,25.40
2022-08-04T13:03:11.417Z,25.40
2022-08-04T13:05:41.677Z,25.40
2022-08-04T13:08:10.037Z,25.40
2022-08-04T13:10:44.349Z,25.40
2022-08-04T13:13:24.192Z,25.40
2022-08-04T13:15:59.622Z,25.40
2022-08-04T13:18:32.367Z,25.40
2022-08-04T13:21:20.924Z,25.40
2022-08-04T13:24:10.236Z,25.50
2022-08-04T13:26:57.773Z,25.50
2022-08-04T13:29:59.231Z,25.50
2022-08-04T13:32:28.576Z,25.50
2022-08-04T13:34:57.271Z,25.50
2022-08-04T13:37:35.114Z,25.50
2022-08-04T13:40:09.107Z,25.50
2022-08-04T13:42:37.383Z,25.50
2022-08-04T13:45:07.199Z,25.50
2022-08-04T13:47:38.044Z,25.50
2022-08-04T13:50:10.727Z,25.50
2022-08-04T13:52:39.230Z,25.50
2022-08-04T13:55:07.051Z,25.60
2022-08-04T13:57:42.926Z,25.60
2022-08-04T14:00:11.305Z,25.60
2022-08-04T14:02:45.005Z,25.60
2022-08-04T14:05:28.019Z,25.60
2022-08-04T14:08:21.129Z,25.60
2022-08-04T14:10:56.244Z,25.60
2022-08-04T14:13:41.137Z,25.60
2022-08-04T14:16:16.195Z,25.60
2022-08-04T14:18:43.165Z,25.60
2022-08-04T14:21:12.416Z,25.60
2022-08-04T14:23:47.354Z,25.60
2022-08-04T14:26:32.494Z,25.60
2022-08-04T14:29:28.366Z,25.70
2022-08-04T14:32:06.175Z,25.60
2022-08-04T14:34:41.323Z,25.60
2022-08-04T14:37:17.323Z,25.70
2022-08-04T14:40:08.461Z,25.70
2022-08-04T14:42:43.927Z,25.60
2022-08-04T14:45:11.994Z,25.60
2022-08-04T14:47:51.756Z,25.60
2022-08-04T14:50:20.570Z,25.60
2022-08-04T14:52:47.282Z,25.70
2022-08-04T14:55:22.426Z,25.80
2022-08-04T14:58:36.399Z,25.80
2022-08-04T15:00:37.638Z,25.80
2022-08-04T15:03:10.135Z,25.80
2022-08-04T15:05:55.207Z,26.30
2022-08-04T15:11:02.310Z,26.00
2022-08-04T15:13:30.794Z,26.30
2022-08-04T15:16:07.017Z,26.10
2022-08-04T15:18:36.384Z,26.20
2022-08-04T15:21:04.826Z,26.20
2022-08-04T15:26:13.387Z,26.20
2022-08-04T15:28:44.605Z,26.20
2022-08-04T15:32:04.786Z,26.30
2022-08-04T15:33:58.991Z,26.50
2022-08-04T15:41:46.164Z,26.20
2022-08-04T15:44:28.236Z,26.20
2022-08-04T15:47:03.982Z,26.30
2022-08-04T15:49:30.937Z,26.30
2022-08-04T15:52:02.634Z,26.20
2022-08-04T15:54:33.005Z,26.20
2022-08-04T16:00:01.686Z,26.20
2022-08-04T16:02:34.913Z,26.30
2022-08-04T16:05:18.194Z,26.30
2022-08-04T16:08:04.453Z,26.30
2022-08-04T16:15:48.385Z,26.20
2022-08-04T16:18:30.435Z,26.20
2022-08-04T16:20:59.110Z,26.30
2022-08-04T16:29:30.926Z,26.30
2022-08-04T16:32:07.413Z,26.00
2022-08-04T16:34:54.570Z,25.70
2022-08-04T16:40:26.374Z,25.80
2022-08-04T16:43:16.308Z,25.70
2022-08-04T16:45:49.951Z,25.70
2022-08-04T16:48:21.943Z,25.60
2022-08-04T16:51:13.111Z,25.70
2022-08-04T16:54:04.125Z,25.70
2022-08-04T16:56:34.778Z,25.80
2022-08-04T16:59:12.848Z,25.80
2022-08-04T17:01:48.357Z,25.40
2022-08-04T17:04:15.755Z,25.70
2022-08-04T17:06:44.233Z,25.40
2022-08-04T17:11:45.106Z,25.90
2022-08-04T17:14:12.468Z,25.70
2022-08-04T17:16:41.756Z,25.80
2022-08-04T17:19:19.795Z,25.60
2022-08-04T17:21:48.902Z,25.50
2022-08-04T17:26:51.911Z,25.60
2022-08-04T17:29:42.781Z,25.60
2022-08-04T17:32:15.090Z,25.70
2022-08-04T17:34:41.985Z,26.10
2022-08-04T17:40:13.947Z,25.40
2022-08-04T17:42:41.813Z,25.70
2022-08-04T17:50:34.813Z,25.60
2022-08-04T17:53:12.155Z,25.90
2022-08-04T17:55:50.430Z,25.60
2022-08-04T17:58:22.935Z,25.70
2022-08-04T18:01:22.525Z,25.70
2022-08-04T18:03:51.528Z,25.60
2022-08-04T18:06:19.483Z,25.50
2022-08-04T18:08:53.086Z,25.80
2022-08-04T18:11:29.785Z,25.80
2022-08-04T18:14:09.439Z,25.70
2022-08-04T18:16:46.014Z,25.70
2022-08-04T18:19:14.874Z,25.70
2022-08-04T18:21:45.591Z,25.80
2022-08-04T18:34:27.382Z,25.40
2022-08-04T18:36:57.473Z,26.70
2022-08-04T18:40:09.706Z,25.80
2022-08-04T18:42:14.772Z,25.80
2022-08-04T18:47:29.683Z,25.60
2022-08-04T18:51:01.566Z,25.70
2022-08-04T18:58:07.033Z,25.20
2022-08-04T19:03:13.127Z,26.00
2022-08-04T19:08:33.014Z,25.60
2022-08-04T19:11:35.290Z,25.50
2022-08-04T19:16:36.451Z,25.90
2022-08-04T19:19:06.169Z,25.50
2022-08-04T19:21:59.801Z,25.80
2022-08-04T19:24:32.494Z,25.70
2022-08-04T19:27:06.953Z,25.80
2022-08-04T19:29:37.210Z,25.70
2022-08-04T19:32:04.382Z,25.50
2022-08-04T19:37:57.409Z,25.60
2022-08-04T19:40:07.152Z,25.40
2022-08-04T19:42:34.570Z,25.50
2022-08-04T19:45:02.249Z,25.60
2022-08-04T19:48:17.679Z,25.40
2022-08-04T19:52:51.517Z,25.40
2022-08-04T19:55:19.539Z,25.30
2022-08-04T19:57:49.848Z,25.40
2022-08-04T20:00:17.832Z,25.80
2022-08-04T20:05:52.549Z,25.60
2022-08-04T20:15:58.086Z,25.40
2022-08-04T20:18:34.957Z,25.60
2022-08-04T20:21:11.266Z,25.60
2022-08-04T20:26:33.198Z,25.80
2022-08-04T20:33:58.514Z,25.30
2022-08-04T20:38:54.374Z,25.40
2022-08-04T20:41:21.937Z,25.20
2022-08-04T20:43:49.945Z,25.30
2022-08-04T20:46:28.528Z,25.40
2022-08-04T20:48:57.507Z,25.60
2022-08-04T20:54:01.464Z,25.30
2022-08-04T20:56:30.798Z,25.80
2022-08-04T20:58:59.539Z,25.60
2022-08-04T21:01:30.286Z,25.50
2022-08-04T21:04:27.897Z,25.40
2022-08-04T21:06:57.238Z,25.60
2022-08-04T21:12:17.034Z,25.60
2022-08-04T21:15:01.206Z,25.70
2022-08-04T21:20:27.322Z,25.50
2022-08-04T21:22:54.889Z,25.80
2022-08-04T21:30:25.131Z,25.50
2022-08-04T21:35:36.746Z,25.50
2022-08-04T21:40:54.134Z,25.60
2022-08-04T21:43:27.022Z,25.50
2022-08-04T21:45:55.090Z,25.70
2022-08-04T21:48:22.900Z,25.80
2022-08-04T21:53:19.834Z,25.60
2022-08-04T21:56:06.867Z,25.10
2022-08-04T21:58:36.190Z,25.60
2022-08-04T22:06:28.404Z,25.80
2022-08-04T22:08:56.983Z,25.90
2022-08-04T22:14:11.249Z,25.60
2022-08-04T22:16:38.562Z,25.80
2022-08-04T22:24:13.907Z,25.70
2022-08-04T22:26:41.493Z,25.60
2022-08-04T22:29:14.309Z,25.50
2022-08-04T22:31:55.914Z,25.50
2022-08-04T22:34:24.766Z,25.50
2022-08-04T22:36:52.529Z,25.50
2022-08-04T22:39:20.681Z,25.50
2022-08-04T22:42:03.746Z,25.50
2022-08-04T22:44:33.308Z,25.50
2022-08-04T22:47:00.707Z,25.50
2022-08-04T22:49:31.748Z,25.50
2022-08-04T22:51:59.587Z,25.50
2022-08-04T22:54:29.698Z,25.50
2022-08-04T22:56:58.317Z,25.50
2022-08-04T22:59:24.970Z,25.50
2022-08-04T23:02:00.120Z,25.50
2022-08-04T23:04:29.907Z,25.50
2022-08-04T23:06:57.082Z,25.50
2022-08-04T23:09:49.485Z,25.50
2022-08-04T23:12:27.875Z,25.50
2022-08-04T23:14:56.442Z,25.50
2022-08-04T23:17:24.822Z,25.50
2022-08-04T23:19:57.716Z,25.50
2022-08-04T23:22:41.297Z,25.50
2022-08-04T23:25:16.412Z,25.50
2022-08-04T23:27:50.738Z,25.50
2022-08-04T23:30:20.847Z,25.50
2022-08-04T23:32:48.809Z,25.50
2022-08-04T23:35:16.073Z,25.50
2022-08-04T23:37:48.355Z,25.50
2022-08-04T23:40:33.151Z,25.50
2022-08-04T23:43:02.278Z,25.50
2022-08-04T23:46:04.682Z,25.50
2022-08-04T23:48:30.653Z,25.50
2022-08-04T23:51:14.229Z,25.50
2022-08-04T23:54:01.507Z,25.50
2022-08-04T23:56:29.284Z,25.50
2022-08-04T23:58:56.392Z,25.50
